Milroy, Indiana
Current Conditions -  °F | °C
As of 1:53 PM on Monday 20 Oct 2014 (Local Time) from KGEZ Reporting Station
Overcast Overcast  
Wind Chill: 60°   Ceiling: 5500
Heat Index: 60°   Visibility: 10mi
Dew Point: 53°   Wind: 9mph
Humidity: 78%   Direction: 270°W
Pressure: 29.87"   Gusts: NA
Location:  39.5°N, 85.47°W
Report Text: KGEZ 201753Z AUTO 27008KT 10SM FEW028 BKN055 OVC070 16/12 A2987 RMK AO2 RAB23E52 SLP115 P0003 60003 T01560117 10183 20094 55022
Loading
Personal Weather Stations






























Interactive Weather Map
Tropical Storm Tracking
New forecast layout! Learn more

10-Day Weather Forecast

Advertisements
Track Severe Weather on mobile